Time;durP1;ratioP1;P1;durP2;ratioP2;P2;SDS_P1;SDS_P2;PMS_P1;PMS_P2;Temp;Humidity;BMP_temperature;BMP_pressure;BME280_temperature;BME280_humidity;BME280_pressure;Samples;Min_cycle;Max_cycle;Signal;HPM_P1;HPM_P2
2021/05/06 00:02:26;;;;;;;16.47;9.70;;;;;;;;;;5086059;28;20462;-58
2021/05/06 00:05:21;;;;;;;15.20;9.30;;;;;;;;;;5095221;28;20544;-56
2021/05/06 00:30:10;;;;;;;15.33;10.87;;;;;;;;;;5096075;28;20883;-60
2021/05/06 00:32:38;;;;;;;17.20;10.57;;;;;;;;;;5095837;28;20466;-60
2021/05/06 00:35:06;;;;;;;16.93;11.23;;;;;;;;;;5095931;28;20477;-60
2021/05/06 00:37:42;;;;;;;15.33;10.40;;;;;;;;;;5096383;28;20446;-61
2021/05/06 00:40:12;;;;;;;14.30;10.40;;;;;;;;;;5095340;28;20536;-60
2021/05/06 00:42:46;;;;;;;15.27;10.53;;;;;;;;;;5094814;28;20890;-61
2021/05/06 00:45:53;;;;;;;15.33;11.30;;;;;;;;;;5095031;28;20462;-60
2021/05/06 00:54:24;;;;;;;13.03;9.60;;;;;;;;;;5093681;28;20442;-60
2021/05/06 00:56:56;;;;;;;12.03;9.80;;;;;;;;;;5094079;28;20452;-60
2021/05/06 00:59:52;;;;;;;18.90;10.27;;;;;;;;;;5094056;28;20450;-60
2021/05/06 01:05:03;;;;;;;18.53;10.77;;;;;;;;;;5094268;28;20432;-60
2021/05/06 01:07:38;;;;;;;15.47;11.07;;;;;;;;;;5093961;28;20485;-60
2021/05/06 01:10:28;;;;;;;14.80;11.60;;;;;;;;;;5093788;28;20448;-60
2021/05/06 01:12:56;;;;;;;20.20;11.33;;;;;;;;;;5093855;28;20476;-58
2021/05/06 01:15:22;;;;;;;16.33;11.30;;;;;;;;;;5094078;28;20484;-60
2021/05/06 01:17:49;;;;;;;16.47;12.23;;;;;;;;;;5093722;28;20445;-58
2021/05/06 01:20:16;;;;;;;21.07;13.07;;;;;;;;;;5093594;28;20456;-60
2021/05/06 01:22:43;;;;;;;17.23;11.73;;;;;;;;;;5093363;28;20482;-58
2021/05/06 01:25:11;;;;;;;19.93;13.37;;;;;;;;;;5093669;28;20464;-57
2021/05/06 01:27:42;;;;;;;16.37;11.77;;;;;;;;;;5093406;28;20487;-59
2021/05/06 01:30:16;;;;;;;17.90;12.43;;;;;;;;;;5093279;28;20587;-57
2021/05/06 01:32:46;;;;;;;16.67;12.23;;;;;;;;;;5093453;28;20465;-60
2021/05/06 01:35:17;;;;;;;17.47;11.90;;;;;;;;;;5093076;28;20460;-60
2021/05/06 01:37:54;;;;;;;15.30;11.93;;;;;;;;;;5093579;28;20447;-59
2021/05/06 01:40:45;;;;;;;14.33;11.73;;;;;;;;;;5093100;28;20457;-58
2021/05/06 01:43:20;;;;;;;17.67;13.07;;;;;;;;;;5093028;28;20615;-58
2021/05/06 01:46:07;;;;;;;18.73;13.20;;;;;;;;;;5093301;28;20443;-57
2021/05/06 01:48:55;;;;;;;15.07;12.50;;;;;;;;;;5093243;28;20459;-60
2021/05/06 01:59:42;;;;;;;16.53;13.83;;;;;;;;;;5092911;28;20415;-59
2021/05/06 02:02:08;;;;;;;20.03;15.13;;;;;;;;;;5092656;28;20448;-57
2021/05/06 02:04:35;;;;;;;19.43;14.17;;;;;;;;;;5092768;28;20438;-60
2021/05/06 02:07:01;;;;;;;16.17;13.97;;;;;;;;;;5092838;28;20821;-55
2021/05/06 02:09:29;;;;;;;20.93;14.57;;;;;;;;;;5093293;28;20448;-60
2021/05/06 02:11:55;;;;;;;18.67;14.87;;;;;;;;;;5092692;28;20983;-60
2021/05/06 02:14:22;;;;;;;21.00;14.10;;;;;;;;;;5092865;28;20453;-58
2021/05/06 02:16:49;;;;;;;16.57;14.00;;;;;;;;;;5092844;28;20452;-58
2021/05/06 02:19:24;;;;;;;18.07;14.03;;;;;;;;;;5092908;28;20821;-59
2021/05/06 02:21:51;;;;;;;16.37;14.03;;;;;;;;;;5092556;28;20479;-57
2021/05/06 02:24:17;;;;;;;17.50;12.90;;;;;;;;;;5092565;28;20823;-60
2021/05/06 02:26:44;;;;;;;18.07;14.27;;;;;;;;;;5092480;28;20480;-60
2021/05/06 02:29:11;;;;;;;18.67;13.87;;;;;;;;;;5092256;28;20823;-60
2021/05/06 02:31:37;;;;;;;16.50;13.17;;;;;;;;;;5092528;28;20455;-60
2021/05/06 02:34:04;;;;;;;16.73;13.87;;;;;;;;;;5092423;28;20839;-60
2021/05/06 02:36:31;;;;;;;18.60;14.23;;;;;;;;;;5092621;28;20453;-60
2021/05/06 02:38:57;;;;;;;17.87;13.30;;;;;;;;;;5092330;28;20787;-60
2021/05/06 02:41:24;;;;;;;16.40;13.73;;;;;;;;;;5092077;28;20546;-58
2021/05/06 02:43:51;;;;;;;18.47;14.00;;;;;;;;;;5091953;28;20496;-60
2021/05/06 02:46:18;;;;;;;18.27;13.03;;;;;;;;;;5092051;28;20556;-60
2021/05/06 02:48:45;;;;;;;17.10;13.60;;;;;;;;;;5092307;28;20453;-60
2021/05/06 02:51:12;;;;;;;19.17;12.20;;;;;;;;;;5091976;28;20457;-58
2021/05/06 02:53:46;;;;;;;16.03;12.80;;;;;;;;;;5092284;28;20472;-58
2021/05/06 02:56:17;;;;;;;18.20;11.47;;;;;;;;;;5092284;28;20450;-58
2021/05/06 02:58:57;;;;;;;17.20;12.03;;;;;;;;;;5092086;28;20861;-58
2021/05/06 03:04:09;;;;;;;12.07;8.13;;;;;;;;;;5091991;28;20572;-58
2021/05/06 03:06:44;;;;;;;11.23;7.13;;;;;;;;;;5091760;28;20482;-60
2021/05/06 03:09:22;;;;;;;8.50;6.83;;;;;;;;;;5091910;28;20993;-60
2021/05/06 03:11:55;;;;;;;8.40;7.27;;;;;;;;;;5091725;28;20456;-59
2021/05/06 03:14:34;;;;;;;11.07;7.80;;;;;;;;;;5092015;28;20461;-60
2021/05/06 03:22:42;;;;;;;8.30;7.40;;;;;;;;;;5095812;28;20457;-60
2021/05/06 03:25:11;;;;;;;10.40;7.97;;;;;;;;;;5096030;28;20454;-59
2021/05/06 03:27:44;;;;;;;10.77;8.40;;;;;;;;;;5095516;28;20537;-60
2021/05/06 03:30:26;;;;;;;10.13;8.47;;;;;;;;;;5095887;28;20454;-60
2021/05/06 03:33:00;;;;;;;11.33;9.27;;;;;;;;;;5095711;28;20466;-61
2021/05/06 03:35:52;;;;;;;10.13;8.07;;;;;;;;;;5095779;28;20449;-61
2021/05/06 03:43:57;;;;;;;17.40;12.23;;;;;;;;;;5095528;28;20459;-60
2021/05/06 03:46:47;;;;;;;13.93;12.30;;;;;;;;;;5095319;28;20833;-61
2021/05/06 04:03:34;;;;;;;16.87;11.10;;;;;;;;;;5095054;28;20437;-60
2021/05/06 04:17:06;;;;;;;16.00;10.00;;;;;;;;;;5092761;28;20428;-58
2021/05/06 04:28:49;;;;;;;11.47;9.07;;;;;;;;;;5050907;28;20575;-61
2021/05/06 04:31:24;;;;;;;10.43;6.83;;;;;;;;;;5046597;28;20822;-58
2021/05/06 04:36:46;;;;;;;13.33;8.43;;;;;;;;;;5094284;28;20429;-57
2021/05/06 04:39:16;;;;;;;15.43;9.20;;;;;;;;;;5094323;28;21042;-56
2021/05/06 04:41:47;;;;;;;15.07;9.33;;;;;;;;;;5094077;28;20454;-58
2021/05/06 04:55:13;;;;;;;12.03;7.63;;;;;;;;;;5065201;28;20785;-56
2021/05/06 04:57:59;;;;;;;12.53;8.00;;;;;;;;;;5094350;28;20450;-53
2021/05/06 05:03:21;;;;;;;10.53;7.47;;;;;;;;;;5095227;28;20522;-57
2021/05/06 05:05:48;;;;;;;13.00;8.07;;;;;;;;;;5095561;28;20554;-55
2021/05/06 05:08:17;;;;;;;11.30;7.67;;;;;;;;;;5094342;28;20486;-50
2021/05/06 05:10:52;;;;;;;9.43;7.13;;;;;;;;;;5093649;28;20454;-51
2021/05/06 05:13:36;;;;;;;11.47;7.23;;;;;;;;;;5093796;28;21014;-55
2021/05/06 05:18:55;;;;;;;12.23;8.27;;;;;;;;;;5070387;28;20818;-51
2021/05/06 05:23:22;;;;;;;10.73;8.60;;;;;;;;;;5093308;28;20450;-50
2021/05/06 05:24:17;;;;;;;16.77;9.97;;;;;;;;;;5093310;28;21012;-53
2021/05/06 05:26:44;;;;;;;9.57;6.90;;;;;;;;;;5093047;28;20490;-62
2021/05/06 05:29:11;;;;;;;12.20;8.63;;;;;;;;;;5086561;28;20512;-61
2021/05/06 05:31:37;;;;;;;14.40;9.70;;;;;;;;;;5092976;28;20454;-60
2021/05/06 05:34:15;;;;;;;14.30;9.83;;;;;;;;;;5092904;28;20816;-60
2021/05/06 05:36:42;;;;;;;13.33;10.00;;;;;;;;;;5092721;28;20449;-59
2021/05/06 05:39:10;;;;;;;15.77;10.83;;;;;;;;;;5092449;28;20454;-58
2021/05/06 05:44:53;;;;;;;13.77;8.93;;;;;;;;;;5092766;28;20442;-59
2021/05/06 05:55:42;;;;;;;17.13;11.23;;;;;;;;;;5092384;28;20413;-59
2021/05/06 05:58:09;;;;;;;16.30;12.60;;;;;;;;;;5092712;28;20434;-61
2021/05/06 06:00:36;;;;;;;15.87;12.57;;;;;;;;;;5092441;28;21100;-60
2021/05/06 06:03:03;;;;;;;19.57;12.77;;;;;;;;;;5092484;28;20470;-59
2021/05/06 06:05:29;;;;;;;16.00;12.80;;;;;;;;;;5092790;28;20450;-61
2021/05/06 06:07:56;;;;;;;20.37;12.63;;;;;;;;;;5092167;28;20490;-60
2021/05/06 06:10:22;;;;;;;17.90;14.27;;;;;;;;;;5092640;28;20450;-58
2021/05/06 06:12:49;;;;;;;18.83;13.43;;;;;;;;;;5092316;28;20462;-60
2021/05/06 06:15:19;;;;;;;15.83;12.73;;;;;;;;;;5093040;28;20446;-59
2021/05/06 06:17:48;;;;;;;19.70;15.77;;;;;;;;;;5093223;28;20454;-63
2021/05/06 06:20:14;;;;;;;18.77;14.47;;;;;;;;;;5092576;28;20461;-58
2021/05/06 06:22:42;;;;;;;19.20;14.47;;;;;;;;;;5092279;28;20470;-61
2021/05/06 06:25:10;;;;;;;20.13;14.07;;;;;;;;;;5092343;28;20450;-63
2021/05/06 06:27:36;;;;;;;18.57;14.27;;;;;;;;;;5091950;28;20489;-62
2021/05/06 06:30:03;;;;;;;16.20;12.80;;;;;;;;;;5091626;28;20450;-61
2021/05/06 06:32:30;;;;;;;19.73;14.97;;;;;;;;;;5091887;28;20473;-61
2021/05/06 06:34:57;;;;;;;22.63;15.87;;;;;;;;;;5091620;28;20930;-62
2021/05/06 06:37:24;;;;;;;20.27;16.13;;;;;;;;;;5091966;28;20439;-58
2021/05/06 06:39:50;;;;;;;20.33;14.77;;;;;;;;;;5091489;28;20458;-58
2021/05/06 06:42:17;;;;;;;21.40;16.70;;;;;;;;;;5091649;28;21009;-58
2021/05/06 06:44:44;;;;;;;21.67;16.00;;;;;;;;;;5091764;28;20457;-58
2021/05/06 06:47:11;;;;;;;21.83;15.13;;;;;;;;;;5091751;28;20482;-63
2021/05/06 06:49:38;;;;;;;19.47;14.63;;;;;;;;;;5091209;28;20208;-60
2021/05/06 06:52:06;;;;;;;20.57;14.87;;;;;;;;;;5091153;28;20200;-60
2021/05/06 06:54:33;;;;;;;22.97;15.83;;;;;;;;;;5091868;28;20211;-58
2021/05/06 06:56:59;;;;;;;22.23;15.63;;;;;;;;;;5091424;28;20665;-60
2021/05/06 06:59:27;;;;;;;25.23;16.50;;;;;;;;;;5091578;28;20442;-58
2021/05/06 07:01:53;;;;;;;23.50;16.23;;;;;;;;;;5091202;28;20223;-58
2021/05/06 07:04:20;;;;;;;16.37;13.33;;;;;;;;;;5091471;28;20666;-59
2021/05/06 07:06:47;;;;;;;19.60;14.57;;;;;;;;;;5091620;28;20228;-58
2021/05/06 07:09:14;;;;;;;24.50;14.97;;;;;;;;;;5091188;28;20227;-58
2021/05/06 07:11:41;;;;;;;22.07;16.20;;;;;;;;;;5091382;28;20976;-58
2021/05/06 07:14:07;;;;;;;19.20;15.70;;;;;;;;;;5091571;28;20235;-59
2021/05/06 07:16:34;;;;;;;16.60;13.13;;;;;;;;;;5091534;28;20201;-59
2021/05/06 07:19:01;;;;;;;18.97;13.77;;;;;;;;;;5091016;28;20210;-60
2021/05/06 07:21:27;;;;;;;16.10;13.07;;;;;;;;;;5091469;28;20221;-58
2021/05/06 07:23:54;;;;;;;15.83;12.77;;;;;;;;;;5091516;28;20228;-59
2021/05/06 07:26:23;;;;;;;17.83;13.97;;;;;;;;;;5091524;28;20205;-56
2021/05/06 07:28:50;;;;;;;17.60;14.00;;;;;;;;;;5091207;28;20212;-57
2021/05/06 07:31:17;;;;;;;17.73;13.13;;;;;;;;;;5090976;28;20210;-57
2021/05/06 07:33:47;;;;;;;18.27;14.20;;;;;;;;;;5091345;28;20236;-57
2021/05/06 07:36:13;;;;;;;23.50;16.13;;;;;;;;;;5091165;28;20620;-60
2021/05/06 07:38:40;;;;;;;23.33;15.40;;;;;;;;;;5091137;28;20208;-58
2021/05/06 07:41:07;;;;;;;22.60;16.20;;;;;;;;;;5091112;28;20206;-58
2021/05/06 07:43:35;;;;;;;20.73;16.30;;;;;;;;;;5091194;28;20234;-60
2021/05/06 07:46:01;;;;;;;21.03;17.10;;;;;;;;;;5091106;28;20206;-60
2021/05/06 07:48:28;;;;;;;21.83;17.53;;;;;;;;;;5091011;28;20226;-61
2021/05/06 07:50:55;;;;;;;23.53;15.50;;;;;;;;;;5091093;28;20210;-59
2021/05/06 07:53:25;;;;;;;23.60;18.03;;;;;;;;;;5091242;28;20245;-58
2021/05/06 07:55:52;;;;;;;21.63;17.57;;;;;;;;;;5091138;28;20215;-58
2021/05/06 07:58:19;;;;;;;25.40;18.80;;;;;;;;;;5088412;28;20206;-59
2021/05/06 08:00:46;;;;;;;25.53;18.73;;;;;;;;;;5090590;28;20209;-62
2021/05/06 08:03:13;;;;;;;23.77;18.50;;;;;;;;;;5091781;28;20229;-55
2021/05/06 08:05:40;;;;;;;22.13;17.67;;;;;;;;;;5094617;28;20692;-54
2021/05/06 08:08:06;;;;;;;23.97;17.50;;;;;;;;;;5094608;28;20590;-64
2021/05/06 08:10:33;;;;;;;18.70;15.03;;;;;;;;;;5094457;28;20202;-58
2021/05/06 08:13:02;;;;;;;20.00;15.60;;;;;;;;;;5094314;28;20228;-60
2021/05/06 08:15:28;;;;;;;19.97;15.37;;;;;;;;;;5094649;28;20218;-60
2021/05/06 08:17:56;;;;;;;18.70;15.50;;;;;;;;;;5094515;28;20258;-60
2021/05/06 08:20:22;;;;;;;20.57;15.07;;;;;;;;;;5094278;28;20202;-61
2021/05/06 08:22:49;;;;;;;21.20;15.53;;;;;;;;;;5094547;28;20231;-58
2021/05/06 08:25:18;;;;;;;18.07;15.30;;;;;;;;;;5094412;28;20576;-60
2021/05/06 08:27:44;;;;;;;20.40;15.20;;;;;;;;;;5093867;28;20225;-61
2021/05/06 08:30:12;;;;;;;18.67;15.33;;;;;;;;;;5094029;28;20222;-60
2021/05/06 08:32:39;;;;;;;20.43;15.93;;;;;;;;;;5094254;28;20217;-59
2021/05/06 08:35:07;;;;;;;18.60;15.50;;;;;;;;;;5094339;28;20219;-60
2021/05/06 08:37:33;;;;;;;16.90;14.80;;;;;;;;;;5093739;28;20207;-60
2021/05/06 08:40:01;;;;;;;16.10;10.57;;;;;;;;;;5093555;28;20932;-60
2021/05/06 08:42:28;;;;;;;20.03;14.43;;;;;;;;;;5093456;28;20245;-59
2021/05/06 08:44:54;;;;;;;18.27;14.77;;;;;;;;;;5093896;28;20298;-57
2021/05/06 08:47:22;;;;;;;18.40;15.60;;;;;;;;;;5093930;28;20224;-59
2021/05/06 08:49:48;;;;;;;17.33;15.10;;;;;;;;;;5093579;28;20217;-60
2021/05/06 08:52:19;;;;;;;15.53;13.80;;;;;;;;;;5093582;28;20220;-59
2021/05/06 08:54:46;;;;;;;15.70;13.57;;;;;;;;;;5093460;28;20236;-61
2021/05/06 08:57:12;;;;;;;17.10;13.00;;;;;;;;;;5093731;28;20203;-61
2021/05/06 08:59:39;;;;;;;14.70;12.70;;;;;;;;;;5093178;28;20219;-60
2021/05/06 09:02:05;;;;;;;14.80;11.80;;;;;;;;;;5093648;28;20234;-59
2021/05/06 09:04:32;;;;;;;13.93;10.00;;;;;;;;;;5093502;28;20208;-60
2021/05/06 09:06:59;;;;;;;13.57;9.77;;;;;;;;;;5093365;28;20228;-60
2021/05/06 09:09:27;;;;;;;13.13;10.03;;;;;;;;;;5093150;28;20208;-59
2021/05/06 09:11:54;;;;;;;13.70;11.10;;;;;;;;;;5093329;28;20209;-60
2021/05/06 09:14:34;;;;;;;13.73;12.07;;;;;;;;;;5093483;28;20204;-59
2021/05/06 09:17:01;;;;;;;11.67;10.17;;;;;;;;;;5093511;28;20200;-59
2021/05/06 09:19:27;;;;;;;12.20;10.73;;;;;;;;;;5093207;28;20208;-58
2021/05/06 09:21:55;;;;;;;14.43;9.97;;;;;;;;;;5092847;28;20665;-60
2021/05/06 09:24:24;;;;;;;10.00;8.80;;;;;;;;;;5093391;28;20211;-63
2021/05/06 09:26:53;;;;;;;11.40;9.50;;;;;;;;;;5093362;28;20224;-63
2021/05/06 09:29:30;;;;;;;11.30;8.47;;;;;;;;;;5092753;28;20209;-63
2021/05/06 09:32:08;;;;;;;10.17;7.93;;;;;;;;;;5093627;28;20204;-63
2021/05/06 09:34:38;;;;;;;10.00;8.37;;;;;;;;;;5095709;28;20618;-61
2021/05/06 09:37:07;;;;;;;10.67;7.87;;;;;;;;;;5095147;28;20208;-63
2021/05/06 09:39:34;;;;;;;8.03;7.23;;;;;;;;;;5092439;28;20200;-62
2021/05/06 09:42:11;;;;;;;8.47;7.33;;;;;;;;;;5092730;28;20232;-64
2021/05/06 09:44:53;;;;;;;10.37;7.83;;;;;;;;;;5092670;28;20228;-62
2021/05/06 09:47:20;;;;;;;9.47;6.60;;;;;;;;;;5093969;28;20228;-59
2021/05/06 09:49:47;;;;;;;8.43;7.47;;;;;;;;;;5093583;28;20669;-59
2021/05/06 09:52:14;;;;;;;10.47;7.80;;;;;;;;;;5094787;28;20232;-59
2021/05/06 09:54:48;;;;;;;8.40;7.60;;;;;;;;;;5094321;28;20219;-59
2021/05/06 09:57:24;;;;;;;9.37;6.73;;;;;;;;;;5092396;28;20227;-59
2021/05/06 09:59:51;;;;;;;8.07;6.00;;;;;;;;;;5092265;28;20203;-64
2021/05/06 10:02:18;;;;;;;6.83;5.87;;;;;;;;;;5092578;28;20220;-64
2021/05/06 10:04:45;;;;;;;8.20;6.27;;;;;;;;;;5092512;28;20235;-64
2021/05/06 10:07:14;;;;;;;7.53;6.73;;;;;;;;;;5092372;28;20761;-65
2021/05/06 10:09:54;;;;;;;9.27;6.30;;;;;;;;;;5092285;28;20213;-60
2021/05/06 10:12:22;;;;;;;7.20;6.50;;;;;;;;;;5093097;28;20254;-62
2021/05/06 10:14:50;;;;;;;6.40;5.80;;;;;;;;;;5092332;28;20235;-61
2021/05/06 10:17:17;;;;;;;8.17;6.67;;;;;;;;;;5092745;28;20197;-63
2021/05/06 10:19:44;;;;;;;5.93;5.30;;;;;;;;;;5092786;28;20734;-65
2021/05/06 10:22:12;;;;;;;6.97;5.63;;;;;;;;;;5093183;28;20242;-64
2021/05/06 10:24:40;;;;;;;7.60;6.17;;;;;;;;;;5091949;28;20205;-60
2021/05/06 10:27:10;;;;;;;6.80;6.20;;;;;;;;;;5091538;28;20633;-58
2021/05/06 10:29:37;;;;;;;6.97;5.67;;;;;;;;;;5091869;28;20206;-60
2021/05/06 10:32:04;;;;;;;6.27;5.63;;;;;;;;;;5091953;28;20212;-60
2021/05/06 10:34:33;;;;;;;6.23;5.37;;;;;;;;;;5091900;28;20205;-57
2021/05/06 10:37:00;;;;;;;6.73;6.07;;;;;;;;;;5092279;28;20234;-63
2021/05/06 10:39:36;;;;;;;6.47;5.80;;;;;;;;;;5093325;28;20726;-66
2021/05/06 10:42:30;;;;;;;5.83;5.23;;;;;;;;;;5091728;28;20218;-59
2021/05/06 10:44:58;;;;;;;5.87;5.03;;;;;;;;;;5091828;28;20525;-64
2021/05/06 10:47:40;;;;;;;7.53;5.63;;;;;;;;;;5091499;28;20226;-64
2021/05/06 10:50:10;;;;;;;7.53;4.70;;;;;;;;;;5091579;28;20217;-64
2021/05/06 10:52:37;;;;;;;5.13;4.63;;;;;;;;;;5091748;28;20224;-64
2021/05/06 10:55:04;;;;;;;5.33;3.73;;;;;;;;;;5091535;28;20679;-65
2021/05/06 10:57:32;;;;;;;4.10;3.50;;;;;;;;;;5091531;28;20204;-62
2021/05/06 10:59:59;;;;;;;7.43;3.07;;;;;;;;;;5091137;28;20925;-61
2021/05/06 11:02:48;;;;;;;4.43;3.53;;;;;;;;;;5091704;28;20254;-62
2021/05/06 11:05:15;;;;;;;4.27;3.47;;;;;;;;;;5087009;28;20240;-62
2021/05/06 11:07:42;;;;;;;4.77;4.03;;;;;;;;;;5091317;28;20246;-62
2021/05/06 11:10:09;;;;;;;4.83;3.67;;;;;;;;;;5091280;28;20208;-62
2021/05/06 11:12:36;;;;;;;4.97;3.50;;;;;;;;;;5091756;28;20237;-61
2021/05/06 11:15:30;;;;;;;6.93;3.70;;;;;;;;;;5091570;28;20208;-65
2021/05/06 11:17:59;;;;;;;5.07;3.90;;;;;;;;;;5091459;28;20230;-65
2021/05/06 11:20:45;;;;;;;4.20;3.60;;;;;;;;;;5091064;28;20236;-61
2021/05/06 11:23:26;;;;;;;3.93;3.43;;;;;;;;;;5091719;28;20236;-62
2021/05/06 11:25:53;;;;;;;4.47;3.50;;;;;;;;;;5091466;28;20218;-62
2021/05/06 11:28:38;;;;;;;4.47;3.20;;;;;;;;;;5091396;28;20609;-63
2021/05/06 11:31:05;;;;;;;3.50;3.20;;;;;;;;;;5091081;28;20204;-63
2021/05/06 11:33:32;;;;;;;6.80;3.93;;;;;;;;;;5091443;28;20711;-64
2021/05/06 11:36:01;;;;;;;6.03;4.00;;;;;;;;;;5091285;28;20601;-65
2021/05/06 11:38:43;;;;;;;5.00;3.53;;;;;;;;;;5093970;28;20337;-64
2021/05/06 11:41:11;;;;;;;6.43;4.03;;;;;;;;;;5095132;28;20825;-64
2021/05/06 11:43:40;;;;;;;4.37;3.23;;;;;;;;;;5094700;28;20264;-65
2021/05/06 11:46:07;;;;;;;4.03;2.80;;;;;;;;;;5095355;28;20201;-66
2021/05/06 11:48:35;;;;;;;3.60;2.37;;;;;;;;;;5094789;28;20722;-65
2021/05/06 11:51:01;;;;;;;4.50;3.10;;;;;;;;;;5094958;28;20200;-64
2021/05/06 11:53:28;;;;;;;2.73;2.40;;;;;;;;;;5094722;28;20228;-64
2021/05/06 11:55:55;;;;;;;3.80;2.33;;;;;;;;;;5094682;28;20316;-63
2021/05/06 11:58:24;;;;;;;3.37;2.23;;;;;;;;;;5094794;28;20587;-63
2021/05/06 12:00:53;;;;;;;3.50;2.30;;;;;;;;;;5094872;28;20213;-63
2021/05/06 12:03:20;;;;;;;2.50;1.93;;;;;;;;;;5094775;28;20305;-65
2021/05/06 12:05:48;;;;;;;3.23;2.30;;;;;;;;;;5094679;28;20322;-64
2021/05/06 12:08:15;;;;;;;5.00;2.50;;;;;;;;;;5094459;28;20266;-62
2021/05/06 12:10:42;;;;;;;3.13;2.47;;;;;;;;;;5094270;28;20217;-62
2021/05/06 12:13:09;;;;;;;3.50;2.50;;;;;;;;;;5094791;28;20224;-63
2021/05/06 12:15:38;;;;;;;5.87;2.40;;;;;;;;;;5094845;28;20215;-67
2021/05/06 12:18:17;;;;;;;4.53;2.30;;;;;;;;;;5094758;28;20200;-64
2021/05/06 12:20:55;;;;;;;2.60;2.07;;;;;;;;;;5094597;28;20219;-63
2021/05/06 12:23:22;;;;;;;4.10;2.50;;;;;;;;;;5094939;28;20228;-63
2021/05/06 12:25:48;;;;;;;4.70;2.17;;;;;;;;;;5094750;28;20201;-64
2021/05/06 12:28:15;;;;;;;5.50;2.70;;;;;;;;;;5094290;28;20224;-62
2021/05/06 12:30:41;;;;;;;4.53;2.60;;;;;;;;;;5094310;28;20579;-63
2021/05/06 12:33:08;;;;;;;4.50;2.40;;;;;;;;;;5094306;28;20239;-63
2021/05/06 12:35:48;;;;;;;3.10;2.37;;;;;;;;;;5094178;28;20672;-62
2021/05/06 12:38:16;;;;;;;4.03;2.23;;;;;;;;;;5094173;28;20208;-63
2021/05/06 12:40:42;;;;;;;2.77;2.40;;;;;;;;;;5093876;28;20672;-63
2021/05/06 12:43:29;;;;;;;4.50;2.40;;;;;;;;;;5093903;28;20301;-63
2021/05/06 12:46:04;;;;;;;4.83;2.33;;;;;;;;;;5093919;28;20231;-62
2021/05/06 12:48:37;;;;;;;7.03;2.20;;;;;;;;;;5093666;28;20228;-60
2021/05/06 12:51:04;;;;;;;3.30;2.10;;;;;;;;;;5093441;28;20569;-60
2021/05/06 12:53:31;;;;;;;4.20;2.20;;;;;;;;;;5094118;28;20228;-60
2021/05/06 12:55:58;;;;;;;3.27;2.43;;;;;;;;;;5093895;28;20287;-61
2021/05/06 12:58:27;;;;;;;3.63;2.30;;;;;;;;;;5093541;28;20608;-61
2021/05/06 13:01:12;;;;;;;3.43;2.47;;;;;;;;;;5093634;28;20548;-60
2021/05/06 13:03:42;;;;;;;4.83;2.40;;;;;;;;;;5093811;28;20311;-60
2021/05/06 13:06:09;;;;;;;2.53;2.20;;;;;;;;;;5093592;28;20249;-65
2021/05/06 13:08:36;;;;;;;2.43;2.10;;;;;;;;;;5093434;28;20235;-62
2021/05/06 13:11:03;;;;;;;3.37;2.20;;;;;;;;;;5093070;28;20208;-62
2021/05/06 13:13:40;;;;;;;5.23;2.33;;;;;;;;;;5093643;28;20234;-62
2021/05/06 13:16:07;;;;;;;5.17;2.23;;;;;;;;;;5093688;28;20204;-60
2021/05/06 13:18:35;;;;;;;6.40;2.20;;;;;;;;;;5093251;28;20205;-60
2021/05/06 13:21:01;;;;;;;5.63;2.43;;;;;;;;;;5093324;28;20301;-61
2021/05/06 13:23:29;;;;;;;2.83;2.13;;;;;;;;;;5093163;28;20231;-64
2021/05/06 13:25:57;;;;;;;5.67;2.50;;;;;;;;;;5093500;28;20206;-60
2021/05/06 13:28:39;;;;;;;3.23;2.37;;;;;;;;;;5092981;28;20224;-61
2021/05/06 13:31:06;;;;;;;3.07;2.47;;;;;;;;;;5090803;28;20208;-63
2021/05/06 13:33:33;;;;;;;4.60;2.33;;;;;;;;;;5093278;28;20227;-62
2021/05/06 13:36:06;;;;;;;8.13;2.23;;;;;;;;;;5092937;28;20212;-62
2021/05/06 13:38:52;;;;;;;2.97;2.00;;;;;;;;;;5092763;28;20203;-62
2021/05/06 13:41:20;;;;;;;4.00;2.60;;;;;;;;;;5092941;28;20627;-62
2021/05/06 13:43:47;;;;;;;4.43;2.70;;;;;;;;;;5091980;28;20235;-62
2021/05/06 13:46:14;;;;;;;4.17;2.60;;;;;;;;;;5092262;28;20196;-56
2021/05/06 13:48:40;;;;;;;3.67;2.50;;;;;;;;;;5092831;28;20228;-55
2021/05/06 13:51:09;;;;;;;4.53;2.30;;;;;;;;;;5092993;28;20214;-55
2021/05/06 13:53:35;;;;;;;3.67;2.30;;;;;;;;;;5093007;28;20743;-66
2021/05/06 13:56:02;;;;;;;3.00;2.27;;;;;;;;;;5093010;28;20208;-66
2021/05/06 13:58:29;;;;;;;4.10;2.30;;;;;;;;;;5092823;28;20204;-65
2021/05/06 14:00:56;;;;;;;3.07;2.37;;;;;;;;;;5091691;28;20215;-67
2021/05/06 14:03:22;;;;;;;3.27;2.10;;;;;;;;;;5093443;28;20232;-68
2021/05/06 14:05:49;;;;;;;3.97;2.03;;;;;;;;;;5094092;28;20204;-66
2021/05/06 14:08:16;;;;;;;4.53;2.53;;;;;;;;;;5095163;28;20311;-65
2021/05/06 14:10:43;;;;;;;5.17;2.13;;;;;;;;;;5094883;28;20570;-66
2021/05/06 14:13:09;;;;;;;3.93;2.17;;;;;;;;;;5092602;28;20302;-58
2021/05/06 14:15:37;;;;;;;3.03;2.20;;;;;;;;;;5092393;28;20201;-57
2021/05/06 14:18:04;;;;;;;3.83;2.00;;;;;;;;;;5092489;28;20196;-58
2021/05/06 14:20:30;;;;;;;6.20;2.07;;;;;;;;;;5093140;28;20224;-67
2021/05/06 14:22:57;;;;;;;3.97;2.30;;;;;;;;;;5093027;28;20228;-65
2021/05/06 14:25:23;;;;;;;5.17;2.30;;;;;;;;;;5092324;28;20277;-66
2021/05/06 14:27:50;;;;;;;3.77;2.17;;;;;;;;;;5092326;28;20233;-65
2021/05/06 14:30:17;;;;;;;2.93;2.03;;;;;;;;;;5092002;28;20325;-66
2021/05/06 14:32:44;;;;;;;3.53;2.23;;;;;;;;;;5093986;28;20221;-69
2021/05/06 14:35:11;;;;;;;2.73;2.00;;;;;;;;;;5093761;28;20266;-67
2021/05/06 14:37:38;;;;;;;3.70;2.63;;;;;;;;;;5093477;28;20551;-67
2021/05/06 14:40:06;;;;;;;4.23;2.80;;;;;;;;;;5091960;28;20200;-65
2021/05/06 14:42:32;;;;;;;2.57;2.10;;;;;;;;;;5091648;28;20783;-66
2021/05/06 14:44:59;;;;;;;4.00;2.30;;;;;;;;;;5092338;28;20196;-68
2021/05/06 14:47:25;;;;;;;3.40;2.10;;;;;;;;;;5091948;28;20229;-67
2021/05/06 14:49:53;;;;;;;4.37;1.97;;;;;;;;;;5091541;28;20213;-66
2021/05/06 14:52:19;;;;;;;4.53;2.23;;;;;;;;;;5092095;28;20274;-66
2021/05/06 14:54:46;;;;;;;3.63;1.90;;;;;;;;;;5091931;28;20206;-66
2021/05/06 14:57:13;;;;;;;2.70;2.17;;;;;;;;;;5091870;28;20839;-66
2021/05/06 14:59:39;;;;;;;4.17;2.20;;;;;;;;;;5091190;28;20709;-66
2021/05/06 15:02:06;;;;;;;3.37;2.27;;;;;;;;;;5090963;28;20669;-67
2021/05/06 15:04:33;;;;;;;5.00;2.37;;;;;;;;;;5091246;28;20580;-64
2021/05/06 15:07:00;;;;;;;3.10;2.13;;;;;;;;;;5091447;28;20769;-66
2021/05/06 15:09:27;;;;;;;4.10;2.07;;;;;;;;;;5091786;28;20202;-66
2021/05/06 15:11:55;;;;;;;5.23;2.13;;;;;;;;;;5091714;28;20253;-65
2021/05/06 15:14:22;;;;;;;2.57;2.03;;;;;;;;;;5096550;28;20205;-65
2021/05/06 15:16:49;;;;;;;3.53;2.20;;;;;;;;;;5096211;28;20212;-68
2021/05/06 15:19:15;;;;;;;3.37;2.30;;;;;;;;;;5096125;28;20201;-68
2021/05/06 15:21:42;;;;;;;3.77;2.20;;;;;;;;;;5096521;28;20678;-67
2021/05/06 15:24:09;;;;;;;5.83;2.80;;;;;;;;;;5096124;28;20714;-67
2021/05/06 15:26:37;;;;;;;3.57;2.43;;;;;;;;;;5096090;28;20583;-68
2021/05/06 15:29:03;;;;;;;5.30;2.80;;;;;;;;;;5096037;28;20592;-66
2021/05/06 15:31:30;;;;;;;8.00;2.30;;;;;;;;;;5095925;28;20269;-67
2021/05/06 15:33:56;;;;;;;4.17;2.20;;;;;;;;;;5095655;28;20239;-65
2021/05/06 15:36:23;;;;;;;3.53;2.40;;;;;;;;;;5095760;28;20208;-64
2021/05/06 15:38:50;;;;;;;5.73;2.60;;;;;;;;;;5094897;28;20217;-65
2021/05/06 15:41:18;;;;;;;5.90;2.70;;;;;;;;;;5095473;28;20208;-64
2021/05/06 15:43:44;;;;;;;3.13;2.30;;;;;;;;;;5095056;28;20723;-65
2021/05/06 15:46:11;;;;;;;4.20;2.60;;;;;;;;;;5095319;28;20211;-65
2021/05/06 15:48:38;;;;;;;4.90;2.40;;;;;;;;;;5095218;28;20231;-65
2021/05/06 15:51:05;;;;;;;3.67;2.37;;;;;;;;;;5095156;28;20208;-65
2021/05/06 15:53:31;;;;;;;5.77;2.40;;;;;;;;;;5095097;28;20223;-66
2021/05/06 15:55:58;;;;;;;2.80;2.10;;;;;;;;;;5094928;28;20256;-66
2021/05/06 15:58:25;;;;;;;2.80;2.27;;;;;;;;;;5094817;28;20204;-66
2021/05/06 16:00:55;;;;;;;3.03;2.27;;;;;;;;;;5094935;28;20211;-67
2021/05/06 16:03:22;;;;;;;4.00;2.50;;;;;;;;;;5094888;28;20220;-64
2021/05/06 16:05:52;;;;;;;3.83;2.50;;;;;;;;;;5094760;28;20246;-65
2021/05/06 16:08:18;;;;;;;5.50;2.90;;;;;;;;;;5094519;28;20683;-65
2021/05/06 16:10:46;;;;;;;4.27;2.50;;;;;;;;;;5094835;28;20582;-65
2021/05/06 16:13:12;;;;;;;4.20;2.60;;;;;;;;;;5094767;28;20255;-65
2021/05/06 16:15:40;;;;;;;4.87;2.77;;;;;;;;;;5094719;28;20215;-65
2021/05/06 16:18:06;;;;;;;3.77;2.57;;;;;;;;;;5094479;28;20207;-65
2021/05/06 16:20:39;;;;;;;5.07;2.60;;;;;;;;;;5094079;28;20207;-65
2021/05/06 16:23:06;;;;;;;3.40;2.83;;;;;;;;;;5094649;28;20593;-64
2021/05/06 16:25:33;;;;;;;6.27;2.63;;;;;;;;;;5093552;28;20211;-64
2021/05/06 16:28:00;;;;;;;3.80;2.83;;;;;;;;;;5094050;28;20226;-64
2021/05/06 16:30:27;;;;;;;3.40;2.70;;;;;;;;;;5094223;28;20209;-68
2021/05/06 16:32:55;;;;;;;4.30;2.77;;;;;;;;;;5094129;28;20306;-68
2021/05/06 16:35:24;;;;;;;4.10;3.10;;;;;;;;;;5094339;28;20578;-63
2021/05/06 16:37:56;;;;;;;3.93;3.20;;;;;;;;;;5093812;28;20703;-64
2021/05/06 16:40:28;;;;;;;5.83;3.50;;;;;;;;;;5093985;28;20555;-65
2021/05/06 16:45:41;;;;;;;5.47;2.97;;;;;;;;;;5093367;28;20287;-65
2021/05/06 16:48:08;;;;;;;5.40;3.50;;;;;;;;;;5093684;28;20328;-64